Time;durP1;ratioP1;P1;durP2;ratioP2;P2;SDS_P1;SDS_P2;PMS_P1;PMS_P2;Temp;Humidity;BMP_temperature;BMP_pressure;BME280_temperature;BME280_humidity;BME280_pressure;Samples;Min_cycle;Max_cycle;Signal;HPM_P1;HPM_P2
2023/11/05 00:01:39;;;;;;;6.67;4.07;;;12.90;99.90;;;;;;4973363;28;20258;-76
2023/11/05 00:04:05;;;;;;;6.50;2.97;;;12.90;99.90;;;;;;4971887;28;20179;-76
2023/11/05 00:06:34;;;;;;;7.10;2.70;;;12.90;99.90;;;;;;4971910;28;20219;-76
2023/11/05 00:09:00;;;;;;;4.17;1.90;;;12.90;99.90;;;;;;4971394;28;20591;-77
2023/11/05 00:11:26;;;;;;;11.35;2.25;;;12.90;99.90;;;;;;4968504;28;20638;-76
2023/11/05 00:13:52;;;;;;;4.43;2.00;;;12.90;99.90;;;;;;4972436;28;20211;-76
2023/11/05 00:16:18;;;;;;;5.17;1.20;;;12.90;99.90;;;;;;4971755;28;20192;-77
2023/11/05 00:18:43;;;;;;;7.17;1.00;;;12.90;99.90;;;;;;4973056;28;20517;-76
2023/11/05 00:21:09;;;;;;;5.23;1.03;;;12.90;99.90;;;;;;4965165;28;20180;-77
2023/11/05 00:23:35;;;;;;;7.53;2.27;;;12.90;99.90;;;;;;4973050;28;20602;-76
2023/11/05 00:26:01;;;;;;;4.23;0.90;;;12.90;99.90;;;;;;4955299;28;20200;-76
2023/11/05 00:28:26;;;;;;;5.40;1.30;;;13.00;99.90;;;;;;4972928;28;20583;-76
2023/11/05 00:30:52;;;;;;;3.33;1.07;;;13.00;99.90;;;;;;4948117;28;20692;-76
2023/11/05 00:33:18;;;;;;;4.60;1.10;;;13.00;99.90;;;;;;4967675;28;20199;-76
2023/11/05 00:35:44;;;;;;;5.40;1.10;;;13.00;99.90;;;;;;4955337;28;20278;-76
2023/11/05 00:38:13;;;;;;;4.47;1.73;;;13.10;99.90;;;;;;4955251;28;20718;-76
2023/11/05 00:40:39;;;;;;;3.17;1.40;;;13.10;99.90;;;;;;4968932;28;20601;-76
2023/11/05 00:43:04;;;;;;;8.30;2.00;;;13.10;99.90;;;;;;4953929;28;20598;-76
2023/11/05 00:45:30;;;;;;;7.00;1.50;;;13.10;99.90;;;;;;4955244;28;20192;-76
2023/11/05 00:47:56;;;;;;;2.83;1.20;;;13.20;99.90;;;;;;4970069;28;20599;-76
2023/11/05 00:50:23;;;;;;;3.80;0.83;;;13.20;99.90;;;;;;4954884;28;20199;-76
2023/11/05 00:52:49;;;;;;;3.93;1.10;;;13.20;99.90;;;;;;4966301;28;20639;-76
2023/11/05 00:55:17;;;;;;;7.47;1.00;;;13.20;99.90;;;;;;4953023;28;21169;-75
2023/11/05 00:57:43;;;;;;;3.90;0.90;;;13.30;99.90;;;;;;4970983;28;20686;-75
2023/11/05 01:00:12;;;;;;;4.33;1.30;;;13.30;99.90;;;;;;4970865;28;20588;-76
2023/11/05 01:02:41;;;;;;;4.20;1.17;;;13.30;99.90;;;;;;4970963;28;20594;-75
2023/11/05 01:05:07;;;;;;;5.27;1.10;;;13.30;99.90;;;;;;4971898;28;20591;-75
2023/11/05 01:07:33;;;;;;;5.23;0.70;;;13.30;99.90;;;;;;4970495;28;20635;-77
2023/11/05 01:09:59;;;;;;;3.80;1.00;;;13.30;99.90;;;;;;4959971;28;20589;-77
2023/11/05 01:12:25;;;;;;;5.43;1.00;;;13.30;99.90;;;;;;4970762;28;20282;-76
2023/11/05 01:14:52;;;;;;;5.63;1.83;;;13.40;99.90;;;;;;4970650;28;20694;-76
2023/11/05 01:17:18;;;;;;;3.20;0.70;;;13.40;99.90;;;;;;4970607;28;20618;-75
2023/11/05 01:19:44;;;;;;;4.87;0.97;;;13.40;99.90;;;;;;4970616;28;20579;-76
2023/11/05 01:22:10;;;;;;;2.93;0.90;;;13.40;99.90;;;;;;4970708;28;20594;-76
2023/11/05 01:24:35;;;;;;;2.70;1.03;;;13.40;99.90;;;;;;4979060;28;20172;-76
2023/11/05 01:27:02;;;;;;;2.73;0.77;;;13.40;99.90;;;;;;4970766;28;20638;-76
2023/11/05 01:29:28;;;;;;;5.50;1.00;;;13.40;99.90;;;;;;4946517;28;20690;-76
2023/11/05 01:31:55;;;;;;;3.07;1.10;;;13.50;99.90;;;;;;4954462;28;20591;-76
2023/11/05 01:34:21;;;;;;;6.40;1.37;;;13.40;99.90;;;;;;4970738;28;20613;-76
2023/11/05 01:36:47;;;;;;;6.73;1.00;;;13.40;99.90;;;;;;4971758;28;21018;-76
2023/11/05 01:39:13;;;;;;;5.97;1.40;;;13.40;99.90;;;;;;4954236;28;20180;-76
2023/11/05 01:41:39;;;;;;;4.03;1.30;;;13.40;99.90;;;;;;4954690;28;20603;-76
2023/11/05 01:44:05;;;;;;;4.50;1.00;;;13.50;99.90;;;;;;4970739;28;21176;-76
2023/11/05 01:46:31;;;;;;;3.13;0.87;;;13.40;99.90;;;;;;4954381;28;20204;-76
2023/11/05 01:48:58;;;;;;;4.40;1.20;;;13.40;99.90;;;;;;4954439;28;20996;-76
2023/11/05 01:51:24;;;;;;;3.90;0.90;;;13.40;99.90;;;;;;4970473;28;20587;-76
2023/11/05 01:53:55;;;;;;;4.87;2.00;;;13.40;99.90;;;;;;4970553;28;20741;-76
2023/11/05 01:56:25;;;;;;;2.10;0.80;;;13.40;99.90;;;;;;4963862;28;20611;-76
2023/11/05 01:58:52;;;;;;;4.90;0.90;;;13.40;99.90;;;;;;4970511;28;20587;-76
2023/11/05 02:01:18;;;;;;;2.93;1.00;;;13.40;99.90;;;;;;4958239;28;20583;-76
2023/11/05 02:03:44;;;;;;;4.50;1.73;;;13.40;99.90;;;;;;4971611;28;20595;-75
2023/11/05 02:06:12;;;;;;;7.83;1.30;;;13.30;99.90;;;;;;4954213;28;20755;-75
2023/11/05 02:08:39;;;;;;;3.53;1.30;;;13.30;99.90;;;;;;4947663;28;20639;-75
2023/11/05 02:11:25;;;;;;;4.17;1.07;;;13.30;99.90;;;;;;4970977;28;20549;-76
2023/11/05 02:13:52;;;;;;;5.80;1.10;;;13.30;99.90;;;;;;4954212;28;20623;-76
2023/11/05 02:16:19;;;;;;;3.87;1.37;;;13.30;99.90;;;;;;4953826;28;20610;-75
2023/11/05 02:18:46;;;;;;;4.43;0.97;;;13.30;99.90;;;;;;4954116;28;21256;-76
2023/11/05 02:21:17;;;;;;;5.20;1.00;;;13.30;99.90;;;;;;4938085;28;21195;-76
2023/11/05 02:23:43;;;;;;;5.53;1.20;;;13.30;99.90;;;;;;4970255;28;20650;-76
2023/11/05 02:26:09;;;;;;;2.47;0.70;;;13.30;99.90;;;;;;4938161;28;21168;-76
2023/11/05 02:28:35;;;;;;;4.13;0.80;;;13.30;99.90;;;;;;4954125;28;20179;-76
2023/11/05 02:31:01;;;;;;;4.53;1.67;;;13.40;99.90;;;;;;4953937;28;20579;-75
2023/11/05 02:33:27;;;;;;;2.80;0.80;;;13.40;99.90;;;;;;4953852;28;20827;-76
2023/11/05 02:35:53;;;;;;;4.70;0.93;;;13.40;99.90;;;;;;4954328;28;20603;-76
2023/11/05 02:38:19;;;;;;;6.23;0.93;;;13.30;99.90;;;;;;4960655;28;20269;-76
2023/11/05 02:40:45;;;;;;;7.20;1.50;;;13.30;99.90;;;;;;4957795;28;20590;-76
2023/11/05 02:43:10;;;;;;;2.10;0.70;;;13.30;99.90;;;;;;4957704;28;20586;-76
2023/11/05 02:45:37;;;;;;;10.93;1.03;;;13.20;99.90;;;;;;4953201;28;20950;-76
2023/11/05 02:48:03;;;;;;;3.07;0.90;;;13.10;99.90;;;;;;4962853;28;20176;-76
2023/11/05 02:50:29;;;;;;;5.20;1.10;;;13.00;99.90;;;;;;4973027;28;20591;-75
2023/11/05 02:52:55;;;;;;;8.00;1.57;;;13.00;99.90;;;;;;4957450;28;21208;-76
2023/11/05 02:55:20;;;;;;;3.80;1.00;;;12.90;99.90;;;;;;4973286;28;20211;-76
2023/11/05 02:57:46;;;;;;;4.47;1.10;;;12.90;99.90;;;;;;4973735;28;20554;-76
2023/11/05 03:00:13;;;;;;;4.87;0.90;;;12.80;99.90;;;;;;4957190;28;20599;-76
2023/11/05 03:02:40;;;;;;;4.07;0.90;;;12.70;99.90;;;;;;4974649;28;20274;-76
2023/11/05 03:05:08;;;;;;;3.92;0.80;;;12.70;99.90;;;;;;4974802;28;20172;-76
2023/11/05 03:07:34;;;;;;;3.95;1.00;;;12.60;99.90;;;;;;4949051;28;20230;-76
2023/11/05 03:10:00;;;;;;;4.77;1.20;;;12.50;99.90;;;;;;4974362;28;20180;-77
2023/11/05 03:12:26;;;;;;;3.65;1.00;;;12.50;99.90;;;;;;4957067;28;20642;-76
2023/11/05 03:14:52;;;;;;;2.17;0.70;;;12.40;99.90;;;;;;4974324;28;20176;-77
2023/11/05 03:17:18;;;;;;;2.80;0.70;;;12.40;99.90;;;;;;4976513;28;20188;-75
2023/11/05 03:19:44;;;;;;;2.50;0.80;;;12.40;99.90;;;;;;4956476;28;20583;-75
2023/11/05 03:22:10;;;;;;;7.40;1.07;;;12.40;99.90;;;;;;4956781;28;20180;-76
2023/11/05 03:24:35;;;;;;;2.85;0.90;;;12.40;99.90;;;;;;4973991;28;20198;-76
2023/11/05 03:27:01;;;;;;;6.37;0.90;;;12.40;99.90;;;;;;4972609;28;20682;-76
2023/11/05 03:29:28;;;;;;;3.90;1.20;;;12.40;99.90;;;;;;4973504;28;20171;-76
2023/11/05 03:31:55;;;;;;;6.22;0.80;;;12.40;99.90;;;;;;4956690;28;20618;-75
2023/11/05 03:34:21;;;;;;;2.85;0.90;;;12.40;99.90;;;;;;4972453;28;20580;-75
2023/11/05 03:36:47;;;;;;;2.97;0.80;;;12.40;99.90;;;;;;4956376;28;20195;-75
2023/11/05 03:39:13;;;;;;;3.25;0.80;;;12.40;99.90;;;;;;4956060;28;20258;-75
2023/11/05 03:41:38;;;;;;;2.28;0.60;;;12.40;99.90;;;;;;4956384;28;20175;-75
2023/11/05 03:44:04;;;;;;;2.33;0.80;;;12.40;99.90;;;;;;4956397;28;20176;-76
2023/11/05 03:46:33;;;;;;;2.03;0.70;;;12.40;99.90;;;;;;4956187;28;20613;-75
2023/11/05 03:48:59;;;;;;;1.90;0.60;;;12.40;99.90;;;;;;4970979;28;20672;-75
2023/11/05 03:51:25;;;;;;;1.65;0.60;;;12.50;99.90;;;;;;4956417;28;20533;-76
2023/11/05 03:53:51;;;;;;;1.57;0.50;;;12.50;99.90;;;;;;4976299;28;20290;-75
2023/11/05 03:56:17;;;;;;;2.43;0.80;;;12.60;99.90;;;;;;4955887;28;20595;-76
2023/11/05 03:58:43;;;;;;;2.20;0.50;;;12.60;99.90;;;;;;4971961;28;20171;-76
2023/11/05 04:01:17;;;;;;;1.95;0.60;;;12.60;99.90;;;;;;4972301;28;20180;-76
2023/11/05 04:03:43;;;;;;;1.70;0.50;;;12.70;99.90;;;;;;4956036;28;20642;-76
2023/11/05 04:06:09;;;;;;;1.40;0.60;;;12.70;99.90;;;;;;4955851;28;20302;-76
2023/11/05 04:08:35;;;;;;;1.27;0.50;;;12.70;99.90;;;;;;4955532;28;21263;-75
2023/11/05 04:11:00;;;;;;;1.30;0.50;;;12.80;99.90;;;;;;4973180;28;20657;-76
2023/11/05 04:13:26;;;;;;;1.23;0.50;;;12.80;99.90;;;;;;4972930;28;20210;-75
2023/11/05 04:15:52;;;;;;;1.90;0.50;;;12.80;99.90;;;;;;4972968;28;20610;-75
2023/11/05 04:18:18;;;;;;;1.80;0.50;;;12.90;99.90;;;;;;4955777;28;20184;-75
2023/11/05 04:20:44;;;;;;;1.33;0.40;;;12.90;99.90;;;;;;4972970;28;20263;-75
2023/11/05 04:23:10;;;;;;;1.50;0.47;;;12.90;99.90;;;;;;4971948;28;20263;-76
2023/11/05 04:25:36;;;;;;;1.77;0.40;;;13.00;99.90;;;;;;4972884;28;20178;-76
2023/11/05 04:28:01;;;;;;;1.10;0.43;;;13.00;99.90;;;;;;4955694;28;20571;-75
2023/11/05 04:30:27;;;;;;;1.20;0.50;;;13.00;99.90;;;;;;4976802;28;20186;-75
2023/11/05 04:32:53;;;;;;;1.23;0.50;;;13.00;99.90;;;;;;4971594;28;20203;-75
2023/11/05 04:35:18;;;;;;;1.50;0.47;;;13.00;99.90;;;;;;4955503;28;20642;-75
2023/11/05 04:37:44;;;;;;;1.40;0.70;;;12.90;99.90;;;;;;4955547;28;20642;-76
2023/11/05 04:40:10;;;;;;;1.20;0.50;;;12.90;99.90;;;;;;4963806;28;20176;-76
2023/11/05 04:42:36;;;;;;;1.30;0.40;;;13.00;99.90;;;;;;4972519;28;20596;-75
2023/11/05 04:45:02;;;;;;;1.60;0.50;;;13.00;99.90;;;;;;4964786;28;20218;-76
2023/11/05 04:47:27;;;;;;;2.00;0.40;;;13.00;99.90;;;;;;4963337;28;20230;-76
2023/11/05 04:49:53;;;;;;;1.10;0.40;;;13.10;99.90;;;;;;4970959;28;20187;-76
2023/11/05 04:52:19;;;;;;;1.20;0.40;;;13.10;99.90;;;;;;4962329;28;20650;-76
2023/11/05 04:54:45;;;;;;;1.33;0.40;;;13.10;99.90;;;;;;4965504;28;20587;-75
2023/11/05 04:57:10;;;;;;;1.60;0.50;;;13.10;99.90;;;;;;4971081;28;20607;-75
2023/11/05 04:59:39;;;;;;;1.53;0.40;;;13.10;99.90;;;;;;4952483;28;20179;-76
2023/11/05 05:02:05;;;;;;;1.20;0.57;;;13.20;99.90;;;;;;4971168;28;20263;-76
2023/11/05 05:04:31;;;;;;;1.87;0.60;;;13.20;99.90;;;;;;4971365;28;20595;-76
2023/11/05 05:06:57;;;;;;;2.03;0.40;;;13.20;99.90;;;;;;4961366;28;21003;-76
2023/11/05 05:09:22;;;;;;;1.40;0.40;;;13.20;99.90;;;;;;4970850;28;20183;-76
2023/11/05 05:11:48;;;;;;;1.37;0.40;;;13.30;99.90;;;;;;4971124;28;20587;-76
2023/11/05 05:14:14;;;;;;;1.57;0.40;;;13.30;99.90;;;;;;4964230;28;20681;-76
2023/11/05 05:16:39;;;;;;;1.10;0.40;;;13.30;99.90;;;;;;4972169;28;20237;-76
2023/11/05 05:19:05;;;;;;;2.27;0.50;;;13.30;99.90;;;;;;4954734;28;20206;-76
2023/11/05 05:21:31;;;;;;;1.50;0.40;;;13.40;99.90;;;;;;4971072;28;20653;-76
2023/11/05 05:23:57;;;;;;;1.40;0.40;;;13.40;99.90;;;;;;4970879;28;20176;-76
2023/11/05 05:26:22;;;;;;;1.20;0.47;;;13.30;99.90;;;;;;4970725;28;20559;-76
2023/11/05 05:28:48;;;;;;;1.10;0.40;;;13.40;99.90;;;;;;4970619;28;20175;-76
2023/11/05 05:31:14;;;;;;;3.30;0.50;;;13.40;99.90;;;;;;4964190;28;20188;-76
2023/11/05 05:33:41;;;;;;;1.27;0.43;;;13.40;99.90;;;;;;4954950;28;20203;-76
2023/11/05 05:36:12;;;;;;;1.30;0.50;;;13.30;99.90;;;;;;4962481;28;21216;-76
2023/11/05 05:38:38;;;;;;;1.20;0.50;;;13.30;99.90;;;;;;4963663;28;20615;-76
2023/11/05 05:41:04;;;;;;;2.40;0.70;;;13.20;99.90;;;;;;4970813;28;20226;-76
2023/11/05 05:43:29;;;;;;;1.70;0.40;;;13.10;99.90;;;;;;4973595;28;20650;-75
2023/11/05 05:45:55;;;;;;;1.70;0.40;;;13.10;99.90;;;;;;4965623;28;20624;-78
2023/11/05 05:48:21;;;;;;;1.37;0.40;;;13.10;99.90;;;;;;4951451;28;20563;-78
2023/11/05 05:50:46;;;;;;;1.10;0.40;;;13.00;99.90;;;;;;4963314;28;20179;-78
2023/11/05 05:53:12;;;;;;;1.20;0.50;;;13.00;99.90;;;;;;4962784;28;20203;-78
2023/11/05 05:55:41;;;;;;;1.10;0.40;;;13.00;99.90;;;;;;4962616;28;20266;-78
2023/11/05 05:58:07;;;;;;;1.25;0.40;;;12.90;99.90;;;;;;4955987;28;20180;-77
2023/11/05 06:00:33;;;;;;;1.97;0.40;;;12.80;99.90;;;;;;4969577;28;20522;-78
2023/11/05 06:02:59;;;;;;;1.77;0.50;;;12.70;99.90;;;;;;4962883;28;20658;-78
2023/11/05 06:05:24;;;;;;;1.20;0.50;;;12.60;99.90;;;;;;4963961;28;20183;-79
2023/11/05 06:07:50;;;;;;;1.30;0.43;;;12.60;99.90;;;;;;4971554;28;20191;-75
2023/11/05 06:10:16;;;;;;;1.10;0.40;;;12.50;99.90;;;;;;4962612;28;20179;-75
2023/11/05 06:12:42;;;;;;;1.23;0.60;;;12.40;99.90;;;;;;4965643;28;20211;-75
2023/11/05 06:15:09;;;;;;;1.30;0.50;;;12.40;99.90;;;;;;4976318;28;20998;-76
2023/11/05 06:17:35;;;;;;;1.10;0.40;;;12.40;99.90;;;;;;4975440;28;20666;-76
2023/11/05 06:20:05;;;;;;;1.20;0.50;;;12.30;99.90;;;;;;4974295;28;20200;-76
2023/11/05 06:22:32;;;;;;;1.10;0.40;;;12.30;99.90;;;;;;4970207;28;20179;-76
2023/11/05 06:24:59;;;;;;;1.40;0.40;;;12.30;99.90;;;;;;4974725;28;20501;-77
2023/11/05 06:27:28;;;;;;;1.48;0.50;;;12.20;99.90;;;;;;4975234;28;20204;-76
2023/11/05 06:29:55;;;;;;;2.28;0.50;;;12.20;99.90;;;;;;4975224;28;20591;-75
2023/11/05 06:32:22;;;;;;;1.67;0.47;;;12.20;99.90;;;;;;4957796;28;20230;-76
2023/11/05 06:34:48;;;;;;;3.25;0.50;;;12.20;99.90;;;;;;4949943;28;20610;-76
2023/11/05 06:37:41;;;;;;;1.40;0.40;;;12.10;99.90;;;;;;4970535;28;20204;-75
2023/11/05 06:40:07;;;;;;;1.73;0.40;;;12.10;99.90;;;;;;4969991;28;20176;-77
2023/11/05 06:42:33;;;;;;;2.58;0.40;;;12.10;99.90;;;;;;4975166;28;20716;-76
2023/11/05 06:44:59;;;;;;;1.30;0.40;;;12.10;99.90;;;;;;4975168;28;20180;-76
2023/11/05 06:47:24;;;;;;;2.60;0.40;;;12.00;99.90;;;;;;4957593;28;20195;-76
2023/11/05 06:49:50;;;;;;;1.20;0.50;;;12.00;99.90;;;;;;4969379;28;20733;-76
2023/11/05 06:52:16;;;;;;;1.10;0.50;;;12.00;99.90;;;;;;4962023;28;20243;-76
2023/11/05 06:54:42;;;;;;;1.50;0.60;;;11.90;99.90;;;;;;4965611;28;20175;-76
2023/11/05 06:57:10;;;;;;;1.43;0.50;;;11.90;99.90;;;;;;4949956;28;20971;-76
2023/11/05 06:59:36;;;;;;;2.15;0.95;;;11.90;99.90;;;;;;4974848;28;20184;-78
2023/11/05 07:02:02;;;;;;;1.90;0.50;;;11.90;99.90;;;;;;4967927;28;20566;-76
2023/11/05 07:04:28;;;;;;;1.20;0.50;;;11.90;99.90;;;;;;4973338;28;20195;-76
2023/11/05 07:06:53;;;;;;;1.77;0.40;;;12.00;99.90;;;;;;4974295;28;20215;-76
2023/11/05 07:09:19;;;;;;;1.57;0.40;;;12.00;99.90;;;;;;4957008;28;20653;-73
2023/11/05 07:11:45;;;;;;;1.60;0.50;;;12.00;99.90;;;;;;4965121;28;20205;-74
2023/11/05 07:14:11;;;;;;;3.70;0.50;;;12.10;99.90;;;;;;4965211;28;20207;-76
2023/11/05 07:16:36;;;;;;;2.07;0.50;;;12.10;99.90;;;;;;4960893;28;20223;-76
2023/11/05 07:19:02;;;;;;;1.83;0.50;;;12.20;99.90;;;;;;4968568;28;20657;-74
2023/11/05 07:21:28;;;;;;;1.90;0.50;;;12.20;99.90;;;;;;4970353;28;20231;-74
2023/11/05 07:23:54;;;;;;;1.70;0.50;;;12.30;99.90;;;;;;4956076;28;20765;-74
2023/11/05 07:26:20;;;;;;;1.30;0.50;;;12.30;99.90;;;;;;4969973;28;20282;-74
2023/11/05 07:28:46;;;;;;;1.33;0.60;;;12.30;99.90;;;;;;4964820;28;20271;-75
2023/11/05 07:31:16;;;;;;;1.63;0.50;;;12.30;99.90;;;;;;4961510;28;20176;-75
2023/11/05 07:33:53;;;;;;;1.60;0.52;;;12.20;99.90;;;;;;4950032;28;20635;-74
2023/11/05 07:36:19;;;;;;;1.20;0.50;;;12.20;99.90;;;;;;4965323;28;20195;-73
2023/11/05 07:38:44;;;;;;;3.27;0.60;;;12.20;99.90;;;;;;4969109;28;20176;-74
2023/11/05 07:41:11;;;;;;;1.60;0.50;;;12.20;99.90;;;;;;4966441;28;20576;-75
2023/11/05 07:43:39;;;;;;;1.20;0.55;;;12.20;99.90;;;;;;4972546;28;20270;-75
2023/11/05 07:46:06;;;;;;;2.00;0.50;;;12.20;99.90;;;;;;4973799;28;20404;-75
2023/11/05 07:48:32;;;;;;;1.20;0.50;;;12.20;99.90;;;;;;4956553;28;20638;-74
2023/11/05 07:51:01;;;;;;;1.60;0.40;;;12.20;99.90;;;;;;4951816;29;20584;-77
2023/11/05 07:53:26;;;;;;;1.50;0.50;;;12.20;99.90;;;;;;4937614;28;20203;-77
2023/11/05 07:55:52;;;;;;;1.40;0.60;;;12.20;99.90;;;;;;4972944;28;20203;-77
2023/11/05 07:58:18;;;;;;;1.93;0.60;;;12.30;99.90;;;;;;4974068;28;20172;-76
2023/11/05 08:00:46;;;;;;;1.30;0.43;;;12.30;99.90;;;;;;4973415;28;20222;-77
2023/11/05 08:03:13;;;;;;;1.65;0.60;;;12.30;99.90;;;;;;4972350;28;20266;-77
2023/11/05 08:05:39;;;;;;;1.83;0.57;;;12.30;99.90;;;;;;4971871;28;20299;-76
2023/11/05 08:08:04;;;;;;;1.60;0.50;;;12.30;99.90;;;;;;4956069;28;20263;-78
2023/11/05 08:10:30;;;;;;;1.40;0.50;;;12.30;99.90;;;;;;4958306;28;20222;-76
2023/11/05 08:12:56;;;;;;;1.77;0.57;;;12.30;99.90;;;;;;4973561;28;20203;-76
2023/11/05 08:15:22;;;;;;;1.20;0.50;;;12.30;99.90;;;;;;4968566;28;20591;-76
2023/11/05 08:17:48;;;;;;;4.43;0.70;;;12.40;99.90;;;;;;4965277;28;20701;-76
2023/11/05 08:20:14;;;;;;;1.40;0.47;;;12.50;99.90;;;;;;4971882;28;20184;-76
2023/11/05 08:22:42;;;;;;;2.30;0.53;;;12.70;99.90;;;;;;4955628;28;20184;-76
2023/11/05 08:25:12;;;;;;;2.10;0.50;;;12.90;99.90;;;;;;4971792;28;20682;-76
2023/11/05 08:27:42;;;;;;;1.30;0.60;;;13.00;99.90;;;;;;4955408;28;20618;-76
2023/11/05 08:30:11;;;;;;;3.20;0.60;;;13.20;99.90;;;;;;4972625;28;20650;-77
2023/11/05 08:32:38;;;;;;;2.30;0.80;;;13.30;99.90;;;;;;4970401;28;20638;-77
2023/11/05 08:35:04;;;;;;;1.87;0.60;;;13.40;99.90;;;;;;4954766;28;20598;-77
2023/11/05 08:37:30;;;;;;;1.63;0.70;;;13.50;99.90;;;;;;4962833;28;20616;-77
2023/11/05 08:39:56;;;;;;;1.73;0.70;;;13.50;99.90;;;;;;4965236;28;21226;-77
2023/11/05 08:42:21;;;;;;;1.70;0.50;;;13.60;99.90;;;;;;4954281;28;20215;-77
2023/11/05 08:44:47;;;;;;;1.50;0.63;;;13.70;99.90;;;;;;4960413;28;20266;-77
2023/11/05 08:47:13;;;;;;;1.50;0.47;;;13.90;99.90;;;;;;4957429;28;20192;-77
2023/11/05 08:49:39;;;;;;;2.03;0.50;;;14.00;99.90;;;;;;4973490;28;20182;-76
2023/11/05 08:52:06;;;;;;;1.30;0.60;;;14.20;99.90;;;;;;4972897;28;20575;-77
2023/11/05 08:54:33;;;;;;;1.47;0.50;;;14.40;99.90;;;;;;4971382;28;20706;-77
2023/11/05 08:56:59;;;;;;;1.87;0.77;;;14.50;99.90;;;;;;4971329;28;20643;-77
2023/11/05 08:59:26;;;;;;;2.47;0.40;;;14.60;99.90;;;;;;4972096;28;20587;-77
2023/11/05 09:01:52;;;;;;;2.10;0.50;;;14.70;99.90;;;;;;4965049;28;20528;-77
2023/11/05 09:04:18;;;;;;;1.20;0.47;;;14.80;99.90;;;;;;4972508;28;20593;-77
2023/11/05 09:06:44;;;;;;;1.40;0.50;;;14.90;99.90;;;;;;4970795;28;20630;-77
2023/11/05 09:09:11;;;;;;;1.20;0.50;;;15.00;99.90;;;;;;4971001;28;20661;-77
2023/11/05 09:11:37;;;;;;;2.27;0.50;;;15.10;99.90;;;;;;4971127;28;20638;-77
2023/11/05 09:14:03;;;;;;;1.30;0.50;;;15.10;99.90;;;;;;4971143;28;20623;-78
2023/11/05 09:16:29;;;;;;;2.07;0.50;;;15.10;99.90;;;;;;4954775;28;21208;-77
2023/11/05 09:18:55;;;;;;;1.20;0.50;;;15.10;99.90;;;;;;4954812;28;20579;-77
2023/11/05 09:21:21;;;;;;;2.30;0.70;;;15.00;99.90;;;;;;4954295;28;20951;-78
2023/11/05 09:23:47;;;;;;;2.17;0.57;;;15.00;99.90;;;;;;4961432;28;20545;-78
2023/11/05 09:26:13;;;;;;;1.10;0.40;;;14.90;99.90;;;;;;4959635;28;21245;-77
2023/11/05 09:28:39;;;;;;;1.57;0.40;;;14.80;99.90;;;;;;4971046;28;20669;-77
2023/11/05 09:31:05;;;;;;;1.30;0.50;;;14.60;99.90;;;;;;4971008;28;20583;-79
2023/11/05 09:33:31;;;;;;;1.17;0.40;;;14.50;99.90;;;;;;4938726;28;20218;-78
2023/11/05 09:35:57;;;;;;;1.10;0.40;;;14.50;99.90;;;;;;4970655;28;21186;-79
2023/11/05 09:38:23;;;;;;;1.90;0.50;;;14.40;99.90;;;;;;4971043;28;20259;-79
2023/11/05 09:40:49;;;;;;;1.30;0.50;;;14.30;99.90;;;;;;4967507;28;20644;-77
2023/11/05 09:43:17;;;;;;;1.70;0.50;;;14.30;99.90;;;;;;4970991;28;20631;-72
2023/11/05 09:45:48;;;;;;;1.50;0.50;;;14.30;99.90;;;;;;4972094;28;20628;-75
2023/11/05 09:48:13;;;;;;;1.77;0.50;;;14.30;99.90;;;;;;4973043;28;20603;-72
2023/11/05 09:50:41;;;;;;;1.20;0.50;;;14.30;99.90;;;;;;4962487;28;20603;-73
2023/11/05 09:53:10;;;;;;;1.80;0.40;;;14.30;99.90;;;;;;4962122;28;20200;-75
2023/11/05 09:55:39;;;;;;;1.40;0.50;;;14.30;99.90;;;;;;4959718;28;20970;-75
2023/11/05 09:58:05;;;;;;;2.20;0.70;;;14.40;99.90;;;;;;4958512;28;20579;-75
2023/11/05 10:00:31;;;;;;;1.30;0.50;;;14.30;99.90;;;;;;4957516;28;20595;-74
2023/11/05 10:03:02;;;;;;;4.10;0.63;;;14.30;99.90;;;;;;4965484;28;20592;-74
2023/11/05 10:05:32;;;;;;;3.97;0.60;;;14.30;99.90;;;;;;4955060;28;20600;-75
2023/11/05 10:07:58;;;;;;;1.20;0.60;;;14.30;99.90;;;;;;4953839;28;20604;-75
2023/11/05 10:10:24;;;;;;;1.30;0.50;;;14.30;99.90;;;;;;4958261;28;21231;-75
2023/11/05 10:12:51;;;;;;;1.70;0.50;;;14.30;99.90;;;;;;4950075;28;20627;-75
2023/11/05 10:15:18;;;;;;;1.20;0.47;;;14.30;99.90;;;;;;4964780;28;20943;-75
2023/11/05 10:17:47;;;;;;;1.70;0.57;;;14.30;99.90;;;;;;4960023;28;20614;-75
2023/11/05 10:20:13;;;;;;;1.20;0.50;;;14.30;99.90;;;;;;4963617;28;20615;-75
2023/11/05 10:22:43;;;;;;;1.40;0.70;;;14.30;99.90;;;;;;4955735;28;20607;-75
2023/11/05 10:25:23;;;;;;;1.73;0.47;;;14.30;99.90;;;;;;4975522;28;20594;-75
2023/11/05 10:27:53;;;;;;;1.20;0.40;;;14.20;99.90;;;;;;4961344;28;20685;-75
2023/11/05 10:30:22;;;;;;;1.30;0.50;;;14.20;99.90;;;;;;4963358;28;20952;-74
2023/11/05 10:32:51;;;;;;;2.10;0.90;;;14.10;99.90;;;;;;4973817;28;20696;-74
2023/11/05 10:35:32;;;;;;;1.50;0.60;;;14.10;99.90;;;;;;4970219;28;20587;-75
2023/11/05 10:37:58;;;;;;;2.13;0.50;;;14.10;99.90;;;;;;4975026;28;20575;-75
2023/11/05 10:40:25;;;;;;;1.30;0.50;;;14.10;99.90;;;;;;4975029;28;20586;-74
2023/11/05 10:42:51;;;;;;;1.27;0.50;;;14.10;99.90;;;;;;4974404;28;20651;-74
2023/11/05 10:45:19;;;;;;;1.20;0.50;;;14.20;99.90;;;;;;4957826;28;20673;-74
2023/11/05 10:47:46;;;;;;;1.20;0.50;;;14.20;99.90;;;;;;4974512;28;20614;-74
2023/11/05 10:50:21;;;;;;;2.07;0.70;;;14.20;99.90;;;;;;4973073;28;20595;-74
2023/11/05 10:52:50;;;;;;;4.40;1.23;;;14.20;99.90;;;;;;4974432;28;20637;-73
2023/11/05 10:55:16;;;;;;;1.20;0.40;;;14.30;99.90;;;;;;4973217;28;20609;-74
2023/11/05 10:57:47;;;;;;;1.53;0.47;;;14.30;99.90;;;;;;4970061;28;20626;-74
2023/11/05 11:00:15;;;;;;;1.20;0.50;;;14.30;99.90;;;;;;4973934;28;20607;-74
2023/11/05 11:02:42;;;;;;;1.30;0.50;;;14.30;99.90;;;;;;4974241;28;20591;-74
2023/11/05 11:05:15;;;;;;;1.30;0.50;;;14.30;99.90;;;;;;4973161;28;20649;-75
2023/11/05 11:07:41;;;;;;;1.30;0.50;;;14.30;99.90;;;;;;4956705;28;20689;-74
2023/11/05 11:10:09;;;;;;;4.33;1.20;;;14.30;99.90;;;;;;4961427;28;20608;-74
2023/11/05 11:12:36;;;;;;;1.70;0.60;;;14.30;99.90;;;;;;4953460;28;20667;-74
2023/11/05 11:15:04;;;;;;;1.30;0.57;;;14.30;99.90;;;;;;4949055;28;20587;-75
2023/11/05 11:17:39;;;;;;;2.80;0.80;;;14.20;99.90;;;;;;4972306;28;20727;-74
2023/11/05 11:20:10;;;;;;;3.17;1.50;;;14.10;99.90;;;;;;4970130;28;20625;-73
2023/11/05 11:22:46;;;;;;;3.80;2.13;;;14.10;99.90;;;;;;4962792;28;20602;-75
2023/11/05 11:25:17;;;;;;;3.90;1.77;;;14.10;99.90;;;;;;4957328;28;20598;-75
2023/11/05 11:27:48;;;;;;;1.87;1.00;;;14.10;99.90;;;;;;4962854;28;20607;-75
2023/11/05 11:30:14;;;;;;;3.10;1.20;;;14.00;99.90;;;;;;4940135;29;20615;-74
2023/11/05 11:32:41;;;;;;;3.83;1.33;;;14.00;99.90;;;;;;4953992;28;20657;-75
2023/11/05 11:35:08;;;;;;;3.83;1.10;;;14.00;99.90;;;;;;4972374;28;20580;-76
2023/11/05 11:37:34;;;;;;;2.93;1.10;;;14.10;99.90;;;;;;4972222;28;20673;-75
2023/11/05 11:40:01;;;;;;;2.67;0.80;;;14.00;99.90;;;;;;4971914;28;20678;-75
2023/11/05 11:42:27;;;;;;;1.80;0.70;;;14.10;99.90;;;;;;4967173;28;20940;-75
2023/11/05 11:44:53;;;;;;;3.10;0.90;;;14.10;99.90;;;;;;4967935;28;20668;-76
2023/11/05 11:47:23;;;;;;;1.50;0.70;;;14.20;99.90;;;;;;4949351;28;20639;-75
2023/11/05 11:49:49;;;;;;;2.17;0.70;;;14.20;99.90;;;;;;4972753;28;21171;-75
2023/11/05 11:52:15;;;;;;;2.47;0.73;;;14.20;99.90;;;;;;4974859;28;20587;-76
2023/11/05 11:54:44;;;;;;;1.77;0.80;;;14.20;99.90;;;;;;4975878;28;20211;-76
2023/11/05 11:57:12;;;;;;;1.70;0.70;;;14.20;99.90;;;;;;4972160;28;20618;-76
2023/11/05 11:59:48;;;;;;;2.77;0.87;;;14.10;99.90;;;;;;4973130;28;20932;-75
2023/11/05 12:02:17;;;;;;;2.53;1.30;;;14.10;99.90;;;;;;4949515;28;20587;-75
2023/11/05 12:04:42;;;;;;;6.10;1.57;;;14.10;99.90;;;;;;4955819;28;20626;-76
2023/11/05 12:07:08;;;;;;;1.77;0.90;;;14.10;99.90;;;;;;4971719;28;20634;-76
2023/11/05 12:09:34;;;;;;;4.90;1.17;;;14.10;99.90;;;;;;4953328;28;20179;-75
2023/11/05 12:12:01;;;;;;;2.03;1.07;;;14.00;99.90;;;;;;4968414;28;20701;-74
2023/11/05 12:14:30;;;;;;;2.03;0.90;;;14.00;99.90;;;;;;4966482;28;21239;-74
2023/11/05 12:16:56;;;;;;;2.63;1.10;;;14.00;99.90;;;;;;4971393;28;20658;-75
2023/11/05 12:19:22;;;;;;;2.17;0.90;;;13.90;99.90;;;;;;4971642;28;20594;-75
2023/11/05 12:21:49;;;;;;;6.77;3.90;;;13.90;99.90;;;;;;4963758;28;20583;-75
2023/11/05 12:24:15;;;;;;;11.53;6.43;;;13.90;99.90;;;;;;4966430;28;20587;-75
2023/11/05 12:26:42;;;;;;;9.70;7.10;;;14.00;99.90;;;;;;4971450;28;21089;-75
2023/11/05 12:29:14;;;;;;;11.00;5.33;;;13.90;99.90;;;;;;4972525;28;20587;-77
2023/11/05 12:31:43;;;;;;;6.23;3.47;;;14.00;99.90;;;;;;4975535;28;20958;-76
2023/11/05 12:34:09;;;;;;;5.13;2.63;;;14.00;99.90;;;;;;4955000;28;20991;-76
2023/11/05 12:36:35;;;;;;;3.80;1.97;;;14.00;99.90;;;;;;4961301;28;20603;-76
2023/11/05 12:39:03;;;;;;;4.63;1.70;;;14.00;99.90;;;;;;4972118;28;20719;-77
2023/11/05 12:41:29;;;;;;;3.30;1.50;;;14.00;99.90;;;;;;4972669;28;20176;-76
2023/11/05 12:43:55;;;;;;;3.33;1.40;;;14.00;99.90;;;;;;4939032;28;20599;-76